sensor_id;sensor_type;location;lat;lon;timestamp;pressure;altitude;pressure_sealevel;temperature;humidity
21826;BME280;11075;47.944;11.776;2024-02-21T00:00:28;95812.41;;;-3.00;76.44
21826;BME280;11075;47.944;11.776;2024-02-21T00:02:55;95808.41;;;-2.96;76.97
21826;BME280;11075;47.944;11.776;2024-02-21T00:05:25;95797.84;;;-3.09;78.54
21826;BME280;11075;47.944;11.776;2024-02-21T00:07:52;95802.97;;;-2.73;75.06
21826;BME280;11075;47.944;11.776;2024-02-21T00:10:19;95789.16;;;-2.67;76.28
21826;BME280;11075;47.944;11.776;2024-02-21T00:12:46;95796.16;;;-3.17;76.16
21826;BME280;11075;47.944;11.776;2024-02-21T00:15:13;95799.56;;;-3.17;77.89
21826;BME280;11075;47.944;11.776;2024-02-21T00:17:40;95791.31;;;-3.20;79.09
21826;BME280;11075;47.944;11.776;2024-02-21T00:20:07;95802.13;;;-3.59;83.32
21826;BME280;11075;47.944;11.776;2024-02-21T00:22:35;95801.38;;;-2.74;77.70
21826;BME280;11075;47.944;11.776;2024-02-21T00:25:02;95794.59;;;-2.90;78.93
21826;BME280;11075;47.944;11.776;2024-02-21T00:27:28;95786.34;;;-2.94;80.42
21826;BME280;11075;47.944;11.776;2024-02-21T00:29:55;95782.84;;;-2.79;78.94
21826;BME280;11075;47.944;11.776;2024-02-21T00:32:22;95788.66;;;-2.22;76.39
21826;BME280;11075;47.944;11.776;2024-02-21T00:34:49;95782.56;;;-2.63;77.91
21826;BME280;11075;47.944;11.776;2024-02-21T00:37:15;95790.63;;;-2.58;77.36
21826;BME280;11075;47.944;11.776;2024-02-21T00:39:42;95776.16;;;-2.61;77.46
21826;BME280;11075;47.944;11.776;2024-02-21T00:42:09;95777.38;;;-2.85;76.98
21826;BME280;11075;47.944;11.776;2024-02-21T00:44:36;95777.59;;;-2.24;76.99
21826;BME280;11075;47.944;11.776;2024-02-21T00:47:03;95772.34;;;-2.58;78.24
21826;BME280;11075;47.944;11.776;2024-02-21T00:49:30;95770.53;;;-2.86;80.24
21826;BME280;11075;47.944;11.776;2024-02-21T00:51:57;95761.44;;;-2.90;80.73
21826;BME280;11075;47.944;11.776;2024-02-21T00:54:23;95760.28;;;-2.25;77.22
21826;BME280;11075;47.944;11.776;2024-02-21T00:56:51;95752.81;;;-2.00;76.20
21826;BME280;11075;47.944;11.776;2024-02-21T00:59:18;95753.09;;;-2.16;76.66
21826;BME280;11075;47.944;11.776;2024-02-21T01:01:45;95754.38;;;-2.05;76.58
21826;BME280;11075;47.944;11.776;2024-02-21T01:04:12;95748.38;;;-2.34;78.16
21826;BME280;11075;47.944;11.776;2024-02-21T01:06:39;95748.19;;;-2.60;78.71
21826;BME280;11075;47.944;11.776;2024-02-21T01:09:10;95748.44;;;-2.21;76.96
21826;BME280;11075;47.944;11.776;2024-02-21T01:11:37;95749.34;;;-2.07;75.44
21826;BME280;11075;47.944;11.776;2024-02-21T01:14:04;95737.22;;;-1.67;74.44
21826;BME280;11075;47.944;11.776;2024-02-21T01:16:31;95746.00;;;-2.57;79.31
21826;BME280;11075;47.944;11.776;2024-02-21T01:18:57;95738.38;;;-2.24;78.16
21826;BME280;11075;47.944;11.776;2024-02-21T01:21:24;95732.09;;;-2.29;79.06
21826;BME280;11075;47.944;11.776;2024-02-21T01:23:51;95742.44;;;-2.49;78.24
21826;BME280;11075;47.944;11.776;2024-02-21T01:26:18;95730.69;;;-2.32;78.37
21826;BME280;11075;47.944;11.776;2024-02-21T01:28:45;95726.44;;;-1.98;74.98
21826;BME280;11075;47.944;11.776;2024-02-21T01:31:12;95727.53;;;-1.79;73.84
21826;BME280;11075;47.944;11.776;2024-02-21T01:33:39;95725.25;;;-1.96;73.93
21826;BME280;11075;47.944;11.776;2024-02-21T01:36:06;95733.59;;;-1.66;73.71
21826;BME280;11075;47.944;11.776;2024-02-21T01:38:34;95729.66;;;-2.03;74.52
21826;BME280;11075;47.944;11.776;2024-02-21T01:41:01;95720.84;;;-2.92;80.98
21826;BME280;11075;47.944;11.776;2024-02-21T01:43:28;95715.38;;;-2.00;75.31
21826;BME280;11075;47.944;11.776;2024-02-21T01:45:56;95711.97;;;-1.94;74.03
21826;BME280;11075;47.944;11.776;2024-02-21T01:48:23;95715.63;;;-1.89;75.21
21826;BME280;11075;47.944;11.776;2024-02-21T01:50:54;95714.72;;;-2.09;76.49
21826;BME280;11075;47.944;11.776;2024-02-21T01:53:23;95707.63;;;-1.61;74.40
21826;BME280;11075;47.944;11.776;2024-02-21T01:55:51;95711.63;;;-2.19;76.99
21826;BME280;11075;47.944;11.776;2024-02-21T01:58:19;95712.56;;;-2.33;76.82
21826;BME280;11075;47.944;11.776;2024-02-21T02:00:47;95707.59;;;-2.22;78.47
21826;BME280;11075;47.944;11.776;2024-02-21T02:03:14;95702.16;;;-2.20;76.26
21826;BME280;11075;47.944;11.776;2024-02-21T02:05:45;95703.00;;;-1.59;73.92
21826;BME280;11075;47.944;11.776;2024-02-21T02:08:14;95697.25;;;-2.02;76.27
21826;BME280;11075;47.944;11.776;2024-02-21T02:10:41;95699.09;;;-2.30;76.81
21826;BME280;11075;47.944;11.776;2024-02-21T02:13:09;95697.06;;;-1.94;76.05
21826;BME280;11075;47.944;11.776;2024-02-21T02:15:41;95690.09;;;-1.73;73.68
21826;BME280;11075;47.944;11.776;2024-02-21T02:18:09;95692.13;;;-2.17;77.79
21826;BME280;11075;47.944;11.776;2024-02-21T02:20:36;95684.09;;;-1.61;73.66
21826;BME280;11075;47.944;11.776;2024-02-21T02:23:07;95680.56;;;-2.35;76.45
21826;BME280;11075;47.944;11.776;2024-02-21T02:25:36;95683.25;;;-2.22;77.93
21826;BME280;11075;47.944;11.776;2024-02-21T02:28:05;95665.09;;;-1.82;75.05
21826;BME280;11075;47.944;11.776;2024-02-21T02:30:35;95666.31;;;-1.85;74.75
21826;BME280;11075;47.944;11.776;2024-02-21T02:33:05;95658.63;;;-2.00;74.49
21826;BME280;11075;47.944;11.776;2024-02-21T02:35:33;95665.53;;;-2.27;76.32
21826;BME280;11075;47.944;11.776;2024-02-21T02:38:03;95663.09;;;-2.28;76.96
21826;BME280;11075;47.944;11.776;2024-02-21T02:40:33;95659.31;;;-1.58;74.11
21826;BME280;11075;47.944;11.776;2024-02-21T02:43:01;95653.00;;;-1.97;74.17
21826;BME280;11075;47.944;11.776;2024-02-21T02:45:28;95655.84;;;-1.85;73.88
21826;BME280;11075;47.944;11.776;2024-02-21T02:47:56;95649.41;;;-1.82;75.24
21826;BME280;11075;47.944;11.776;2024-02-21T02:50:24;95641.38;;;-1.61;74.03
21826;BME280;11075;47.944;11.776;2024-02-21T02:52:52;95641.78;;;-1.64;72.90
21826;BME280;11075;47.944;11.776;2024-02-21T02:55:20;95640.16;;;-1.78;75.69
21826;BME280;11075;47.944;11.776;2024-02-21T02:57:46;95635.25;;;-2.49;79.09
21826;BME280;11075;47.944;11.776;2024-02-21T03:00:14;95633.66;;;-2.02;75.52
21826;BME280;11075;47.944;11.776;2024-02-21T03:02:42;95634.13;;;-1.72;75.03
21826;BME280;11075;47.944;11.776;2024-02-21T03:05:16;95629.72;;;-1.65;73.24
21826;BME280;11075;47.944;11.776;2024-02-21T03:07:45;95618.50;;;-2.13;75.08
21826;BME280;11075;47.944;11.776;2024-02-21T03:10:12;95618.19;;;-1.84;73.09
21826;BME280;11075;47.944;11.776;2024-02-21T03:12:40;95613.19;;;-1.79;72.75
21826;BME280;11075;47.944;11.776;2024-02-21T03:15:07;95607.28;;;-2.07;72.69
21826;BME280;11075;47.944;11.776;2024-02-21T03:17:34;95600.91;;;-1.52;72.87
21826;BME280;11075;47.944;11.776;2024-02-21T03:20:02;95602.88;;;-1.94;74.88
21826;BME280;11075;47.944;11.776;2024-02-21T03:22:32;95603.34;;;-1.50;72.35
21826;BME280;11075;47.944;11.776;2024-02-21T03:24:59;95611.78;;;-1.75;73.32
21826;BME280;11075;47.944;11.776;2024-02-21T03:27:26;95613.22;;;-2.27;78.38
21826;BME280;11075;47.944;11.776;2024-02-21T03:29:53;95606.72;;;-1.83;74.85
21826;BME280;11075;47.944;11.776;2024-02-21T03:32:20;95599.91;;;-1.31;71.63
21826;BME280;11075;47.944;11.776;2024-02-21T03:34:47;95615.06;;;-2.14;75.99
21826;BME280;11075;47.944;11.776;2024-02-21T03:37:14;95614.63;;;-1.24;71.20
21826;BME280;11075;47.944;11.776;2024-02-21T03:39:41;95614.38;;;-1.88;73.84
21826;BME280;11075;47.944;11.776;2024-02-21T03:42:08;95616.44;;;-1.17;71.49
21826;BME280;11075;47.944;11.776;2024-02-21T03:44:35;95618.03;;;-1.10;70.16
21826;BME280;11075;47.944;11.776;2024-02-21T03:47:02;95610.34;;;-1.91;72.79
21826;BME280;11075;47.944;11.776;2024-02-21T03:49:29;95609.97;;;-1.28;70.73
21826;BME280;11075;47.944;11.776;2024-02-21T03:51:56;95611.19;;;-1.64;71.44
21826;BME280;11075;47.944;11.776;2024-02-21T03:54:23;95612.78;;;-1.63;74.81
21826;BME280;11075;47.944;11.776;2024-02-21T03:56:50;95610.19;;;-1.16;73.55
21826;BME280;11075;47.944;11.776;2024-02-21T03:59:17;95607.94;;;-1.79;75.15
21826;BME280;11075;47.944;11.776;2024-02-21T04:01:44;95608.38;;;-1.23;73.39
21826;BME280;11075;47.944;11.776;2024-02-21T04:04:11;95605.53;;;-1.14;72.41
21826;BME280;11075;47.944;11.776;2024-02-21T04:06:46;95608.38;;;-1.56;75.01
21826;BME280;11075;47.944;11.776;2024-02-21T04:09:13;95608.22;;;-2.22;80.82
21826;BME280;11075;47.944;11.776;2024-02-21T04:11:41;95604.72;;;-1.81;75.55
21826;BME280;11075;47.944;11.776;2024-02-21T04:14:07;95600.13;;;-1.53;75.77
21826;BME280;11075;47.944;11.776;2024-02-21T04:16:35;95601.19;;;-2.21;80.33
21826;BME280;11075;47.944;11.776;2024-02-21T04:19:02;95605.47;;;-2.07;77.38
21826;BME280;11075;47.944;11.776;2024-02-21T04:21:29;95606.69;;;-1.96;76.69
21826;BME280;11075;47.944;11.776;2024-02-21T04:23:56;95599.31;;;-1.33;75.75
21826;BME280;11075;47.944;11.776;2024-02-21T04:26:22;95596.69;;;-1.46;77.59
21826;BME280;11075;47.944;11.776;2024-02-21T04:28:49;95591.84;;;-1.43;76.87
21826;BME280;11075;47.944;11.776;2024-02-21T04:31:16;95589.13;;;-2.16;82.06
21826;BME280;11075;47.944;11.776;2024-02-21T04:33:43;95586.91;;;-2.12;80.39
21826;BME280;11075;47.944;11.776;2024-02-21T04:36:10;95581.38;;;-1.63;79.50
21826;BME280;11075;47.944;11.776;2024-02-21T04:38:37;95579.13;;;-1.99;79.11
21826;BME280;11075;47.944;11.776;2024-02-21T04:41:05;95575.53;;;-1.52;76.31
21826;BME280;11075;47.944;11.776;2024-02-21T04:43:32;95577.97;;;-1.50;74.26
21826;BME280;11075;47.944;11.776;2024-02-21T04:45:59;95575.94;;;-1.61;73.56
21826;BME280;11075;47.944;11.776;2024-02-21T04:48:27;95566.47;;;-1.42;73.56
21826;BME280;11075;47.944;11.776;2024-02-21T04:50:54;95561.25;;;-1.62;73.26
21826;BME280;11075;47.944;11.776;2024-02-21T04:53:21;95557.00;;;-1.83;75.92
21826;BME280;11075;47.944;11.776;2024-02-21T04:55:47;95559.03;;;-1.45;74.07
21826;BME280;11075;47.944;11.776;2024-02-21T04:58:15;95558.63;;;-1.49;73.79
21826;BME280;11075;47.944;11.776;2024-02-21T05:00:41;95556.59;;;-1.73;73.31
21826;BME280;11075;47.944;11.776;2024-02-21T05:03:08;95552.94;;;-1.13;68.79
21826;BME280;11075;47.944;11.776;2024-02-21T05:05:35;95554.16;;;-2.01;72.42
21826;BME280;11075;47.944;11.776;2024-02-21T05:08:03;95547.56;;;-1.71;70.63
21826;BME280;11075;47.944;11.776;2024-02-21T05:10:30;95545.94;;;-1.59;71.81
21826;BME280;11075;47.944;11.776;2024-02-21T05:12:57;95540.91;;;-1.93;74.24
21826;BME280;11075;47.944;11.776;2024-02-21T05:15:24;95539.06;;;-2.06;72.90
21826;BME280;11075;47.944;11.776;2024-02-21T05:17:51;95533.66;;;-1.85;73.27
21826;BME280;11075;47.944;11.776;2024-02-21T05:20:18;95526.19;;;-1.41;70.33
21826;BME280;11075;47.944;11.776;2024-02-21T05:22:45;95532.66;;;-1.70;71.40
21826;BME280;11075;47.944;11.776;2024-02-21T05:25:11;95527.63;;;-1.78;71.42
21826;BME280;11075;47.944;11.776;2024-02-21T05:27:38;95518.56;;;-1.89;71.17
21826;BME280;11075;47.944;11.776;2024-02-21T05:30:06;95517.53;;;-2.01;71.60
21826;BME280;11075;47.944;11.776;2024-02-21T05:32:33;95510.09;;;-2.04;71.42
21826;BME280;11075;47.944;11.776;2024-02-21T05:35:00;95506.41;;;-2.30;72.20
21826;BME280;11075;47.944;11.776;2024-02-21T05:37:27;95511.97;;;-2.59;73.86
21826;BME280;11075;47.944;11.776;2024-02-21T05:39:54;95512.38;;;-2.56;73.83
21826;BME280;11075;47.944;11.776;2024-02-21T05:42:21;95501.97;;;-2.29;72.96
21826;BME280;11075;47.944;11.776;2024-02-21T05:44:47;95507.53;;;-2.59;72.97
21826;BME280;11075;47.944;11.776;2024-02-21T05:47:14;95512.28;;;-2.82;75.69
21826;BME280;11075;47.944;11.776;2024-02-21T05:49:42;95500.53;;;-2.52;73.34
21826;BME280;11075;47.944;11.776;2024-02-21T05:52:09;95499.50;;;-2.57;73.19
21826;BME280;11075;47.944;11.776;2024-02-21T05:54:39;95500.13;;;-2.55;71.88
21826;BME280;11075;47.944;11.776;2024-02-21T05:57:07;95486.44;;;-2.57;69.67
21826;BME280;11075;47.944;11.776;2024-02-21T05:59:35;95482.41;;;-3.14;75.44
21826;BME280;11075;47.944;11.776;2024-02-21T06:02:03;95486.44;;;-3.53;77.87
21826;BME280;11075;47.944;11.776;2024-02-21T06:04:30;95484.91;;;-2.93;74.42
21826;BME280;11075;47.944;11.776;2024-02-21T06:06:58;95481.66;;;-3.01;73.50
21826;BME280;11075;47.944;11.776;2024-02-21T06:09:24;95475.59;;;-3.15;72.46
21826;BME280;11075;47.944;11.776;2024-02-21T06:11:51;95472.28;;;-3.30;73.83
21826;BME280;11075;47.944;11.776;2024-02-21T06:14:19;95472.69;;;-3.33;75.84
21826;BME280;11075;47.944;11.776;2024-02-21T06:16:46;95468.06;;;-4.22;81.69
21826;BME280;11075;47.944;11.776;2024-02-21T06:19:13;95462.72;;;-3.86;80.31
21826;BME280;11075;47.944;11.776;2024-02-21T06:21:40;95464.91;;;-3.89;83.39
21826;BME280;11075;47.944;11.776;2024-02-21T06:24:07;95455.66;;;-3.23;78.41
21826;BME280;11075;47.944;11.776;2024-02-21T06:26:34;95460.63;;;-3.69;80.84
21826;BME280;11075;47.944;11.776;2024-02-21T06:29:01;95459.94;;;-3.50;79.68
21826;BME280;11075;47.944;11.776;2024-02-21T06:31:29;95462.72;;;-3.17;76.13
21826;BME280;11075;47.944;11.776;2024-02-21T06:33:56;95464.34;;;-3.50;80.63
21826;BME280;11075;47.944;11.776;2024-02-21T06:36:23;95465.09;;;-3.22;77.46
21826;BME280;11075;47.944;11.776;2024-02-21T06:38:50;95457.53;;;-3.10;77.41
21826;BME280;11075;47.944;11.776;2024-02-21T06:41:17;95451.63;;;-3.66;83.39
21826;BME280;11075;47.944;11.776;2024-02-21T06:43:46;95447.53;;;-3.75;84.43
21826;BME280;11075;47.944;11.776;2024-02-21T06:46:26;95446.34;;;-3.38;82.50
21826;BME280;11075;47.944;11.776;2024-02-21T06:48:56;95446.75;;;-3.41;83.01
21826;BME280;11075;47.944;11.776;2024-02-21T06:51:24;95446.72;;;-3.00;80.20
21826;BME280;11075;47.944;11.776;2024-02-21T06:53:54;95444.81;;;-3.26;82.95
21826;BME280;11075;47.944;11.776;2024-02-21T06:56:25;95444.84;;;-2.39;78.98
21826;BME280;11075;47.944;11.776;2024-02-21T06:58:56;95447.28;;;-2.24;78.26
21826;BME280;11075;47.944;11.776;2024-02-21T07:01:24;95450.53;;;-1.96;75.26
21826;BME280;11075;47.944;11.776;2024-02-21T07:03:51;95451.31;;;-1.75;74.02
21826;BME280;11075;47.944;11.776;2024-02-21T07:06:18;95451.75;;;-1.98;74.66
21826;BME280;11075;47.944;11.776;2024-02-21T07:08:45;95456.53;;;-1.56;73.95
21826;BME280;11075;47.944;11.776;2024-02-21T07:11:12;95444.09;;;-2.00;75.92
21826;BME280;11075;47.944;11.776;2024-02-21T07:13:39;95453.31;;;-2.37;78.93
21826;BME280;11075;47.944;11.776;2024-02-21T07:16:06;95443.41;;;-1.42;75.90
21826;BME280;11075;47.944;11.776;2024-02-21T07:18:33;95436.84;;;-1.85;75.92
21826;BME280;11075;47.944;11.776;2024-02-21T07:21:00;95431.09;;;-1.35;75.54
21826;BME280;11075;47.944;11.776;2024-02-21T07:23:27;95436.25;;;-1.09;73.98
21826;BME280;11075;47.944;11.776;2024-02-21T07:25:54;95431.09;;;-1.35;75.24
21826;BME280;11075;47.944;11.776;2024-02-21T07:28:21;95430.75;;;-0.94;71.88
21826;BME280;11075;47.944;11.776;2024-02-21T07:30:48;95430.84;;;-0.76;70.90
21826;BME280;11075;47.944;11.776;2024-02-21T07:33:15;95441.44;;;-0.26;69.13
21826;BME280;11075;47.944;11.776;2024-02-21T07:35:42;95443.09;;;-0.32;69.93
21826;BME280;11075;47.944;11.776;2024-02-21T07:38:11;95453.28;;;0.08;68.67
21826;BME280;11075;47.944;11.776;2024-02-21T07:40:39;95445.34;;;0.15;68.07
21826;BME280;11075;47.944;11.776;2024-02-21T07:43:07;95442.72;;;-0.10;68.82
21826;BME280;11075;47.944;11.776;2024-02-21T07:45:33;95440.53;;;0.36;67.83
21826;BME280;11075;47.944;11.776;2024-02-21T07:48:00;95437.91;;;0.36;65.74
21826;BME280;11075;47.944;11.776;2024-02-21T07:50:27;95436.34;;;0.29;67.65
21826;BME280;11075;47.944;11.776;2024-02-21T07:52:54;95428.78;;;-0.67;70.38
21826;BME280;11075;47.944;11.776;2024-02-21T07:55:21;95423.34;;;-0.34;72.40
21826;BME280;11075;47.944;11.776;2024-02-21T07:57:48;95425.09;;;-0.98;74.70
21826;BME280;11075;47.944;11.776;2024-02-21T08:00:16;95414.94;;;-0.18;74.09
21826;BME280;11075;47.944;11.776;2024-02-21T08:02:48;95402.59;;;0.32;70.64
21826;BME280;11075;47.944;11.776;2024-02-21T08:05:15;95394.66;;;0.94;69.97
21826;BME280;11075;47.944;11.776;2024-02-21T08:07:42;95393.41;;;0.96;65.07
21826;BME280;11075;47.944;11.776;2024-02-21T08:10:09;95385.50;;;0.23;64.26
21826;BME280;11075;47.944;11.776;2024-02-21T08:12:36;95379.03;;;0.81;61.47
21826;BME280;11075;47.944;11.776;2024-02-21T08:15:04;95375.75;;;1.45;61.43
21826;BME280;11075;47.944;11.776;2024-02-21T08:17:31;95365.59;;;0.89;62.22
21826;BME280;11075;47.944;11.776;2024-02-21T08:19:58;95365.34;;;1.50;59.77
21826;BME280;11075;47.944;11.776;2024-02-21T08:22:25;95354.38;;;1.12;59.68
21826;BME280;11075;47.944;11.776;2024-02-21T08:24:53;95357.78;;;5.49;47.94
21826;BME280;11075;47.944;11.776;2024-02-21T08:27:20;95328.72;;;5.91;44.54
21826;BME280;11075;47.944;11.776;2024-02-21T08:29:47;95334.56;;;6.30;44.30
21826;BME280;11075;47.944;11.776;2024-02-21T08:32:14;95344.63;;;8.24;43.30
21826;BME280;11075;47.944;11.776;2024-02-21T08:34:41;95339.56;;;8.23;43.30
21826;BME280;11075;47.944;11.776;2024-02-21T08:37:07;95364.16;;;9.93;40.08
21826;BME280;11075;47.944;11.776;2024-02-21T08:39:34;95379.53;;;9.67;38.64
21826;BME280;11075;47.944;11.776;2024-02-21T08:42:01;95405.88;;;11.85;34.81
21826;BME280;11075;47.944;11.776;2024-02-21T08:44:28;95382.22;;;10.64;35.44
21826;BME280;11075;47.944;11.776;2024-02-21T08:46:55;95351.06;;;10.25;36.85
21826;BME280;11075;47.944;11.776;2024-02-21T08:49:23;95338.31;;;9.49;37.01
21826;BME280;11075;47.944;11.776;2024-02-21T08:51:57;95348.19;;;9.88;36.30
21826;BME280;11075;47.944;11.776;2024-02-21T08:54:24;95305.13;;;8.77;38.73
21826;BME280;11075;47.944;11.776;2024-02-21T08:56:51;95368.63;;;10.60;35.38
21826;BME280;11075;47.944;11.776;2024-02-21T08:59:18;95353.16;;;10.57;35.70
21826;BME280;11075;47.944;11.776;2024-02-21T09:01:44;95379.38;;;11.27;33.88
21826;BME280;11075;47.944;11.776;2024-02-21T09:04:12;95338.50;;;8.08;36.53
21826;BME280;11075;47.944;11.776;2024-02-21T09:06:38;95372.63;;;11.72;33.96
21826;BME280;11075;47.944;11.776;2024-02-21T09:09:08;95414.19;;;13.90;31.16
21826;BME280;11075;47.944;11.776;2024-02-21T09:11:36;95370.88;;;9.85;33.85
21826;BME280;11075;47.944;11.776;2024-02-21T09:14:03;95416.94;;;14.35;30.33
21826;BME280;11075;47.944;11.776;2024-02-21T09:16:31;95461.13;;;14.29;28.49
21826;BME280;11075;47.944;11.776;2024-02-21T09:18:59;95450.38;;;14.51;28.31
21826;BME280;11075;47.944;11.776;2024-02-21T09:21:26;95421.44;;;13.54;29.24
21826;BME280;11075;47.944;11.776;2024-02-21T09:23:54;95414.47;;;13.53;29.93
21826;BME280;11075;47.944;11.776;2024-02-21T09:26:25;95366.19;;;10.35;33.55
21826;BME280;11075;47.944;11.776;2024-02-21T09:28:52;95346.09;;;10.71;33.61
21826;BME280;11075;47.944;11.776;2024-02-21T09:31:19;95346.31;;;10.22;34.74
21826;BME280;11075;47.944;11.776;2024-02-21T09:33:46;95419.00;;;12.84;30.03
21826;BME280;11075;47.944;11.776;2024-02-21T09:36:14;95356.31;;;10.64;33.29
21826;BME280;11075;47.944;11.776;2024-02-21T09:38:41;95407.53;;;11.62;31.13
21826;BME280;11075;47.944;11.776;2024-02-21T09:41:27;95442.53;;;10.94;29.02
21826;BME280;11075;47.944;11.776;2024-02-21T09:43:56;95447.38;;;12.85;28.06
21826;BME280;11075;47.944;11.776;2024-02-21T09:47:15;95407.03;;;9.52;31.81
21826;BME280;11075;47.944;11.776;2024-02-21T09:51:44;95353.72;;;6.90;34.03
21826;BME280;11075;47.944;11.776;2024-02-21T09:54:13;95356.25;;;7.42;33.75
21826;BME280;11075;47.944;11.776;2024-02-21T09:56:45;95380.50;;;8.27;31.64
21826;BME280;11075;47.944;11.776;2024-02-21T09:59:16;95343.03;;;8.08;34.16
21826;BME280;11075;47.944;11.776;2024-02-21T10:01:43;95339.00;;;8.41;34.12
21826;BME280;11075;47.944;11.776;2024-02-21T10:04:17;95383.66;;;8.49;31.59
21826;BME280;11075;47.944;11.776;2024-02-21T10:06:45;95344.38;;;8.10;33.81
21826;BME280;11075;47.944;11.776;2024-02-21T10:09:26;95359.25;;;8.11;32.18
21826;BME280;11075;47.944;11.776;2024-02-21T10:12:08;95365.59;;;9.31;32.15
21826;BME280;11075;47.944;11.776;2024-02-21T10:14:37;95367.06;;;10.25;31.97
21826;BME280;11075;47.944;11.776;2024-02-21T10:17:04;95390.41;;;10.44;30.51
21826;BME280;11075;47.944;11.776;2024-02-21T10:19:36;95327.78;;;8.59;34.22
21826;BME280;11075;47.944;11.776;2024-02-21T10:22:05;95334.63;;;10.42;32.63
21826;BME280;11075;47.944;11.776;2024-02-21T10:24:35;95329.44;;;10.56;33.17
21826;BME280;11075;47.944;11.776;2024-02-21T10:27:06;95342.41;;;10.10;32.69
21826;BME280;11075;47.944;11.776;2024-02-21T10:29:39;95375.34;;;10.82;30.24
21826;BME280;11075;47.944;11.776;2024-02-21T10:32:11;95357.53;;;8.87;31.16
21826;BME280;11075;47.944;11.776;2024-02-21T10:34:41;95346.38;;;8.79;31.90
21826;BME280;11075;47.944;11.776;2024-02-21T10:37:17;95338.97;;;7.39;32.56
21826;BME280;11075;47.944;11.776;2024-02-21T10:39:44;95366.50;;;9.99;29.87
21826;BME280;11075;47.944;11.776;2024-02-21T10:42:11;95353.88;;;9.27;31.22
21826;BME280;11075;47.944;11.776;2024-02-21T10:44:40;95345.94;;;9.17;31.11
21826;BME280;11075;47.944;11.776;2024-02-21T10:47:10;95345.84;;;8.72;31.51
21826;BME280;11075;47.944;11.776;2024-02-21T10:49:41;95369.94;;;10.34;29.41
21826;BME280;11075;47.944;11.776;2024-02-21T10:55:22;95333.94;;;11.46;29.76
21826;BME280;11075;47.944;11.776;2024-02-21T10:57:53;95350.03;;;9.92;29.42
21826;BME280;11075;47.944;11.776;2024-02-21T11:00:20;95328.69;;;9.92;29.98
21826;BME280;11075;47.944;11.776;2024-02-21T11:02:51;95331.31;;;9.97;29.79
21826;BME280;11075;47.944;11.776;2024-02-21T11:05:18;95344.09;;;9.66;28.89
21826;BME280;11075;47.944;11.776;2024-02-21T11:07:45;95314.00;;;9.95;30.88
21826;BME280;11075;47.944;11.776;2024-02-21T11:10:24;95304.22;;;9.46;30.86
21826;BME280;11075;47.944;11.776;2024-02-21T11:13:14;95270.47;;;11.00;31.98
21826;BME280;11075;47.944;11.776;2024-02-21T11:15:41;95285.34;;;11.25;30.15
21826;BME280;11075;47.944;11.776;2024-02-21T11:18:08;95264.31;;;11.75;30.94
21826;BME280;11075;47.944;11.776;2024-02-21T11:20:36;95260.34;;;10.97;30.39
21826;BME280;11075;47.944;11.776;2024-02-21T11:23:04;95225.56;;;10.59;32.15
21826;BME280;11075;47.944;11.776;2024-02-21T11:25:31;95235.41;;;10.40;31.29
21826;BME280;11075;47.944;11.776;2024-02-21T11:28:04;95248.81;;;12.04;30.00
21826;BME280;11075;47.944;11.776;2024-02-21T11:30:31;95204.47;;;11.71;31.88
21826;BME280;11075;47.944;11.776;2024-02-21T11:33:02;95252.63;;;11.52;29.19
21826;BME280;11075;47.944;11.776;2024-02-21T11:35:34;95253.53;;;12.40;28.26
21826;BME280;11075;47.944;11.776;2024-02-21T11:38:09;95231.31;;;13.30;28.83
21826;BME280;11075;47.944;11.776;2024-02-21T11:40:38;95207.22;;;11.14;30.66
21826;BME280;11075;47.944;11.776;2024-02-21T11:43:07;95203.66;;;11.56;30.15
21826;BME280;11075;47.944;11.776;2024-02-21T11:45:34;95191.66;;;12.27;30.11
21826;BME280;11075;47.944;11.776;2024-02-21T11:48:01;95195.31;;;10.45;30.17
21826;BME280;11075;47.944;11.776;2024-02-21T11:50:30;95210.38;;;11.54;28.23
21826;BME280;11075;47.944;11.776;2024-02-21T11:52:57;95179.53;;;8.75;31.58
21826;BME280;11075;47.944;11.776;2024-02-21T11:55:24;95226.41;;;11.16;27.21
21826;BME280;11075;47.944;11.776;2024-02-21T11:57:51;95219.16;;;10.13;27.65
21826;BME280;11075;47.944;11.776;2024-02-21T12:00:19;95205.13;;;12.09;27.68
21826;BME280;11075;47.944;11.776;2024-02-21T12:02:50;95187.13;;;11.35;29.25
21826;BME280;11075;47.944;11.776;2024-02-21T12:05:20;95247.84;;;8.90;25.53
21826;BME280;11075;47.944;11.776;2024-02-21T12:07:48;95243.16;;;10.13;26.52
21826;BME280;11075;47.944;11.776;2024-02-21T12:10:14;95264.09;;;11.33;24.80
21826;BME280;11075;47.944;11.776;2024-02-21T12:12:41;95276.97;;;10.70;23.94
21826;BME280;11075;47.944;11.776;2024-02-21T12:15:08;95263.03;;;10.97;24.47
21826;BME280;11075;47.944;11.776;2024-02-21T12:17:36;95250.16;;;11.36;24.69
21826;BME280;11075;47.944;11.776;2024-02-21T12:20:04;95236.22;;;11.91;25.18
21826;BME280;11075;47.944;11.776;2024-02-21T12:22:39;95246.03;;;9.24;25.11
21826;BME280;11075;47.944;11.776;2024-02-21T12:25:19;95232.00;;;9.82;25.42
21826;BME280;11075;47.944;11.776;2024-02-21T12:27:47;95250.72;;;10.29;24.61
21826;BME280;11075;47.944;11.776;2024-02-21T12:30:15;95222.75;;;10.93;25.39
21826;BME280;11075;47.944;11.776;2024-02-21T12:32:42;95225.03;;;11.38;25.24
21826;BME280;11075;47.944;11.776;2024-02-21T12:35:09;95182.94;;;12.63;26.61
21826;BME280;11075;47.944;11.776;2024-02-21T12:37:36;95151.19;;;11.60;28.26
21826;BME280;11075;47.944;11.776;2024-02-21T12:40:06;95182.38;;;10.33;26.45
21826;BME280;11075;47.944;11.776;2024-02-21T12:42:34;95216.34;;;12.66;23.53
21826;BME280;11075;47.944;11.776;2024-02-21T12:45:02;95204.38;;;13.80;23.88
21826;BME280;11075;47.944;11.776;2024-02-21T12:47:30;95165.50;;;14.39;24.77
21826;BME280;11075;47.944;11.776;2024-02-21T12:49:57;95134.53;;;10.98;27.60
21826;BME280;11075;47.944;11.776;2024-02-21T12:52:24;95131.34;;;13.30;26.18
21826;BME280;11075;47.944;11.776;2024-02-21T12:54:51;95154.25;;;13.58;25.32
21826;BME280;11075;47.944;11.776;2024-02-21T12:57:18;95130.41;;;11.39;26.54
21826;BME280;11075;47.944;11.776;2024-02-21T12:59:45;95113.28;;;11.72;27.12
21826;BME280;11075;47.944;11.776;2024-02-21T13:02:12;95106.94;;;11.35;27.42